createdAt,value
2022-10-31T00:01:14.262Z,9.94
2022-10-31T00:03:42.878Z,9.70
2022-10-31T00:06:11.775Z,9.35
2022-10-31T00:08:41.880Z,9.45
2022-10-31T00:11:11.568Z,9.69
2022-10-31T00:13:39.845Z,10.06
2022-10-31T00:16:15.636Z,10.16
2022-10-31T00:18:44.211Z,10.08
2022-10-31T00:21:12.900Z,10.15
2022-10-31T00:23:42.916Z,10.10
2022-10-31T00:26:11.688Z,9.96
2022-10-31T00:28:39.991Z,9.60
2022-10-31T00:31:11.051Z,9.96
2022-10-31T00:33:40.963Z,9.70
2022-10-31T00:36:12.850Z,9.71
2022-10-31T00:38:44.356Z,10.08
2022-10-31T00:41:13.440Z,9.87
2022-10-31T00:43:43.150Z,10.11
2022-10-31T00:46:11.910Z,10.11
2022-10-31T00:48:40.620Z,10.40
2022-10-31T00:51:09.640Z,10.58
2022-10-31T00:53:38.477Z,10.66
2022-10-31T00:56:09.252Z,10.86
2022-10-31T00:58:37.840Z,10.65
2022-10-31T01:01:06.979Z,10.68
2022-10-31T01:03:37.103Z,10.55
2022-10-31T01:06:08.200Z,10.47
2022-10-31T01:08:37.559Z,10.35
2022-10-31T01:11:10.197Z,10.40
2022-10-31T01:13:38.690Z,10.25
2022-10-31T01:16:09.941Z,10.44
2022-10-31T01:18:38.913Z,10.38
2022-10-31T01:21:09.821Z,10.27
2022-10-31T01:23:39.161Z,10.22
2022-10-31T01:26:11.692Z,10.21
2022-10-31T01:28:46.923Z,10.15
2022-10-31T01:31:16.801Z,10.08
2022-10-31T01:33:45.877Z,10.06
2022-10-31T01:36:19.821Z,10.10
2022-10-31T01:38:48.856Z,10.05
2022-10-31T01:41:20.551Z,10.11
2022-10-31T01:43:52.519Z,10.01
2022-10-31T01:46:24.992Z,10.00
2022-10-31T01:48:55.496Z,10.04
2022-10-31T01:51:29.982Z,10.18
2022-10-31T01:54:01.495Z,10.14
2022-10-31T01:56:31.587Z,10.25
2022-10-31T01:59:01.852Z,10.17
2022-10-31T02:01:31.059Z,10.02
2022-10-31T02:03:59.893Z,10.10
2022-10-31T02:06:35.218Z,10.03
2022-10-31T02:09:05.559Z,10.05
2022-10-31T02:11:35.509Z,10.18
2022-10-31T02:14:05.150Z,10.06
2022-10-31T02:16:33.768Z,9.72
2022-10-31T02:19:02.437Z,9.67
2022-10-31T02:21:35.874Z,9.72
2022-10-31T02:24:46.310Z,9.73
2022-10-31T02:27:44.429Z,9.57
2022-10-31T02:30:17.274Z,8.72
2022-10-31T02:32:55.514Z,8.87
2022-10-31T02:35:35.662Z,9.12
2022-10-31T02:38:27.295Z,8.75
2022-10-31T02:41:03.867Z,8.97
2022-10-31T02:44:00.777Z,9.20
2022-10-31T02:46:35.043Z,9.19
2022-10-31T02:49:09.445Z,8.87
2022-10-31T02:51:38.821Z,8.38
2022-10-31T02:54:07.517Z,8.38
2022-10-31T02:56:36.178Z,8.14
2022-10-31T02:59:06.606Z,8.10
2022-10-31T03:01:45.856Z,8.38
2022-10-31T03:04:41.289Z,8.32
2022-10-31T03:07:14.939Z,8.41
2022-10-31T03:09:49.293Z,8.47
2022-10-31T03:12:24.451Z,8.55
2022-10-31T03:14:56.353Z,8.64
2022-10-31T03:17:28.872Z,8.85
2022-10-31T03:20:00.874Z,8.79
2022-10-31T03:22:31.996Z,8.95
2022-10-31T03:25:02.757Z,8.84
2022-10-31T03:27:32.173Z,9.04
2022-10-31T03:30:03.717Z,9.08
2022-10-31T03:32:39.071Z,9.25
2022-10-31T03:35:11.078Z,9.31
2022-10-31T03:37:41.533Z,9.04
2022-10-31T03:40:15.160Z,9.24
2022-10-31T03:42:46.086Z,9.46
2022-10-31T03:45:16.947Z,8.96
2022-10-31T03:47:46.257Z,8.67
2022-10-31T03:50:17.820Z,8.66
2022-10-31T03:52:50.442Z,8.91
2022-10-31T03:55:21.339Z,8.10
2022-10-31T03:57:54.472Z,8.15
2022-10-31T04:00:23.190Z,7.64
2022-10-31T04:02:58.433Z,7.55
2022-10-31T04:05:32.145Z,7.50
2022-10-31T04:08:04.544Z,7.49
2022-10-31T04:10:33.842Z,7.26
2022-10-31T04:13:06.908Z,7.59
2022-10-31T04:15:46.252Z,7.27
2022-10-31T04:18:15.139Z,8.06
2022-10-31T04:20:45.326Z,8.02
2022-10-31T04:23:20.288Z,7.77
2022-10-31T04:25:48.740Z,8.05
2022-10-31T04:30:47.799Z,8.18
2022-10-31T04:33:16.474Z,8.25
2022-10-31T04:35:48.606Z,8.58
2022-10-31T04:38:17.338Z,8.44
2022-10-31T04:40:47.331Z,8.51
2022-10-31T04:43:34.415Z,8.34
2022-10-31T04:46:03.774Z,8.38
2022-10-31T04:48:32.540Z,8.03
2022-10-31T04:51:02.958Z,8.75
2022-10-31T04:53:31.418Z,8.96
2022-10-31T04:56:18.415Z,8.48
2022-10-31T04:58:49.450Z,8.49
2022-10-31T05:01:18.452Z,8.66
2022-10-31T05:03:47.490Z,8.21
2022-10-31T05:06:17.582Z,8.48
2022-10-31T05:08:46.293Z,8.62
2022-10-31T05:11:15.262Z,8.57
2022-10-31T05:13:45.432Z,8.72
2022-10-31T05:16:34.041Z,8.93
2022-10-31T05:19:21.508Z,9.01
2022-10-31T05:22:14.527Z,8.69
2022-10-31T05:24:43.212Z,8.32
2022-10-31T05:27:12.556Z,8.66
2022-10-31T05:29:41.261Z,8.20
2022-10-31T05:32:09.946Z,8.83
2022-10-31T05:34:56.563Z,8.77
2022-10-31T05:37:46.987Z,9.09
2022-10-31T05:40:16.810Z,8.87
2022-10-31T05:42:46.090Z,8.72
2022-10-31T05:45:17.324Z,8.99
2022-10-31T05:47:53.397Z,8.63
2022-10-31T05:50:40.536Z,8.87
2022-10-31T05:53:13.383Z,8.61
2022-10-31T05:55:42.733Z,9.08
2022-10-31T05:58:14.681Z,8.82
2022-10-31T06:00:51.499Z,8.46
2022-10-31T06:03:20.666Z,8.87
2022-10-31T06:05:55.058Z,9.37
2022-10-31T06:08:28.482Z,9.52
2022-10-31T06:10:58.602Z,9.40
2022-10-31T06:13:47.175Z,8.63
2022-10-31T06:16:21.697Z,8.43
2022-10-31T06:18:50.318Z,8.32
2022-10-31T06:21:19.766Z,8.89
2022-10-31T06:23:52.339Z,9.39
2022-10-31T06:26:43.951Z,9.62
2022-10-31T06:29:12.587Z,9.72
2022-10-31T06:31:57.245Z,9.81
2022-10-31T06:34:25.983Z,9.82
2022-10-31T06:36:54.734Z,9.52
2022-10-31T06:39:28.012Z,8.77
2022-10-31T06:41:56.777Z,9.04
2022-10-31T06:44:26.093Z,9.61
2022-10-31T06:46:57.322Z,9.94
2022-10-31T06:49:46.187Z,10.01
2022-10-31T06:52:17.707Z,10.21
2022-10-31T06:54:48.046Z,10.39
2022-10-31T06:57:17.127Z,10.62
2022-10-31T06:59:46.069Z,10.50
2022-10-31T07:02:19.056Z,10.81
2022-10-31T07:04:47.657Z,11.13
2022-10-31T07:07:17.709Z,11.63
2022-10-31T07:09:48.990Z,11.45
2022-10-31T07:12:19.868Z,11.37
2022-10-31T07:14:58.507Z,10.27
2022-10-31T07:17:29.852Z,10.98
2022-10-31T07:20:00.842Z,10.21
2022-10-31T07:22:35.009Z,10.10
2022-10-31T07:25:07.159Z,11.00
2022-10-31T07:27:55.986Z,10.69
2022-10-31T07:30:24.860Z,9.48
2022-10-31T07:32:57.615Z,10.22
2022-10-31T07:35:35.977Z,9.32
2022-10-31T07:38:11.626Z,10.69
2022-10-31T07:40:41.619Z,11.72
2022-10-31T07:43:14.011Z,12.23
2022-10-31T07:45:59.177Z,12.14
2022-10-31T07:49:03.492Z,12.78
2022-10-31T07:52:01.642Z,11.59
2022-10-31T07:54:49.220Z,13.40
2022-10-31T07:57:28.435Z,14.36
2022-10-31T07:59:59.501Z,14.02
2022-10-31T08:02:29.304Z,15.50
2022-10-31T08:05:24.371Z,18.31
2022-10-31T08:08:32.235Z,20.36
2022-10-31T08:11:04.131Z,21.10
2022-10-31T08:13:34.352Z,22.94
2022-10-31T08:16:05.290Z,23.61
2022-10-31T08:18:38.619Z,24.91
2022-10-31T08:21:09.754Z,26.01
2022-10-31T08:23:38.625Z,26.35
2022-10-31T08:26:07.616Z,26.81
2022-10-31T08:28:37.388Z,25.70
2022-10-31T08:31:06.905Z,26.44
2022-10-31T08:33:44.260Z,27.86
2022-10-31T08:36:22.656Z,28.28
2022-10-31T08:39:01.569Z,26.99
2022-10-31T08:41:31.858Z,26.72
2022-10-31T08:44:03.569Z,26.25
2022-10-31T08:46:32.974Z,27.76
2022-10-31T08:49:01.548Z,24.06
2022-10-31T08:51:30.840Z,25.33
2022-10-31T08:53:59.978Z,23.00
2022-10-31T08:56:47.260Z,20.78
2022-10-31T08:59:32.011Z,19.79
2022-10-31T09:02:18.994Z,16.20
2022-10-31T09:04:47.570Z,16.60
2022-10-31T09:07:23.281Z,18.22
2022-10-31T09:09:52.156Z,19.55
2022-10-31T09:12:22.010Z,19.89
2022-10-31T09:15:15.197Z,20.83
2022-10-31T09:18:04.597Z,22.58
2022-10-31T09:20:41.596Z,20.02
2022-10-31T09:23:12.966Z,19.10
2022-10-31T09:25:46.154Z,21.73
2022-10-31T09:28:47.450Z,19.05
2022-10-31T09:31:20.581Z,19.49
2022-10-31T09:33:49.414Z,22.25
2022-10-31T09:36:38.541Z,22.75
2022-10-31T09:39:10.331Z,22.83
2022-10-31T09:41:56.301Z,26.28
2022-10-31T09:44:31.536Z,29.14
2022-10-31T09:47:05.733Z,31.09
2022-10-31T09:49:44.739Z,30.56
2022-10-31T09:52:18.980Z,30.53
2022-10-31T09:54:51.418Z,31.59
2022-10-31T09:57:26.436Z,29.29
2022-10-31T09:59:56.250Z,28.65
2022-10-31T10:02:30.277Z,28.63
2022-10-31T10:05:00.915Z,31.23
2022-10-31T10:07:42.318Z,31.36
2022-10-31T10:10:37.879Z,30.99
2022-10-31T10:13:44.180Z,31.17
2022-10-31T10:16:24.053Z,30.56
2022-10-31T10:19:03.284Z,30.12
2022-10-31T10:21:39.753Z,30.51
2022-10-31T10:24:20.482Z,29.81
2022-10-31T10:26:56.964Z,31.32
2022-10-31T10:29:33.501Z,31.56
2022-10-31T10:32:05.365Z,33.61
2022-10-31T10:34:39.618Z,34.25
2022-10-31T10:37:17.702Z,34.39
2022-10-31T10:39:48.972Z,29.20
2022-10-31T10:42:35.922Z,30.59
2022-10-31T10:45:34.282Z,30.25
2022-10-31T10:48:11.029Z,31.08
2022-10-31T10:50:43.663Z,29.69
2022-10-31T10:53:32.870Z,32.34
2022-10-31T10:56:08.606Z,25.69
2022-10-31T10:58:38.481Z,21.42
2022-10-31T11:01:13.058Z,20.23
2022-10-31T11:03:42.621Z,21.38
2022-10-31T11:06:23.297Z,26.29
2022-10-31T11:08:52.004Z,29.80
2022-10-31T11:11:26.850Z,29.21
2022-10-31T11:14:00.074Z,28.50
2022-10-31T11:16:39.560Z,29.08
2022-10-31T11:19:16.066Z,27.55
2022-10-31T11:21:51.212Z,27.29
2022-10-31T11:24:24.315Z,27.89
2022-10-31T11:26:53.653Z,24.55
2022-10-31T11:29:25.957Z,25.67
2022-10-31T11:31:55.846Z,28.25
2022-10-31T11:34:30.519Z,29.46
2022-10-31T11:37:05.129Z,27.31
2022-10-31T11:39:33.906Z,24.24
2022-10-31T11:42:08.712Z,24.86
2022-10-31T11:44:37.902Z,25.44
2022-10-31T11:47:07.661Z,25.76
2022-10-31T11:49:38.324Z,25.70
2022-10-31T11:52:10.791Z,27.07
2022-10-31T11:54:47.067Z,22.09
2022-10-31T11:57:33.725Z,23.48
2022-10-31T12:00:05.206Z,25.87
2022-10-31T12:02:40.989Z,23.95
2022-10-31T12:05:13.324Z,23.12
2022-10-31T12:07:43.101Z,21.00
2022-10-31T12:10:12.472Z,23.74
2022-10-31T12:12:50.121Z,23.55
2022-10-31T12:15:34.505Z,21.41
2022-10-31T12:18:31.532Z,19.33
2022-10-31T12:21:10.248Z,21.82
2022-10-31T12:23:51.005Z,17.97
2022-10-31T12:26:23.573Z,17.74
2022-10-31T12:29:04.416Z,18.11
2022-10-31T12:31:46.278Z,20.78
2022-10-31T12:34:47.827Z,21.55
2022-10-31T12:37:26.150Z,20.85
2022-10-31T12:40:06.079Z,20.74
2022-10-31T12:42:46.781Z,20.55
2022-10-31T12:45:32.526Z,20.24
2022-10-31T12:48:12.786Z,20.40
2022-10-31T12:50:53.509Z,19.67
2022-10-31T12:53:32.845Z,18.33
2022-10-31T12:56:12.880Z,17.16
2022-10-31T12:58:41.484Z,15.17
2022-10-31T13:01:13.923Z,15.85
2022-10-31T13:03:48.391Z,16.54
2022-10-31T13:06:21.713Z,16.27
2022-10-31T13:08:52.809Z,16.32
2022-10-31T13:11:26.206Z,15.90
2022-10-31T13:14:00.817Z,15.37
2022-10-31T13:16:32.545Z,15.07
2022-10-31T13:19:03.696Z,13.60
2022-10-31T13:21:35.600Z,14.43
2022-10-31T13:24:06.739Z,13.44
2022-10-31T13:26:40.152Z,12.77
2022-10-31T13:29:16.982Z,12.76
2022-10-31T13:31:45.456Z,11.79
2022-10-31T13:34:21.776Z,12.24
2022-10-31T13:36:56.888Z,13.13
2022-10-31T13:39:32.848Z,13.33
2022-10-31T13:42:06.826Z,12.24
2022-10-31T13:44:38.790Z,12.26
2022-10-31T13:47:23.470Z,12.58
2022-10-31T13:49:51.895Z,12.79
2022-10-31T13:52:26.469Z,13.03
2022-10-31T13:54:58.003Z,13.42
2022-10-31T13:57:34.567Z,12.87
2022-10-31T14:00:07.173Z,12.68
2022-10-31T14:02:48.469Z,13.30
2022-10-31T14:05:25.079Z,12.67
2022-10-31T14:07:54.634Z,12.94
2022-10-31T14:10:27.256Z,12.74
2022-10-31T14:13:06.477Z,12.74
2022-10-31T14:15:35.423Z,12.57
2022-10-31T14:18:08.588Z,12.99
2022-10-31T14:20:42.004Z,13.19
2022-10-31T14:23:15.642Z,12.59
2022-10-31T14:25:44.022Z,12.65
2022-10-31T14:28:24.486Z,12.63
2022-10-31T14:30:53.875Z,13.18
2022-10-31T14:33:23.053Z,11.98
2022-10-31T14:35:54.121Z,11.79
2022-10-31T14:38:39.423Z,11.44
2022-10-31T14:41:23.301Z,11.42
2022-10-31T14:44:12.892Z,11.04
2022-10-31T14:46:47.938Z,10.80
2022-10-31T14:49:38.632Z,11.69
2022-10-31T14:52:09.652Z,11.27
2022-10-31T14:54:41.664Z,11.41
2022-10-31T14:57:17.740Z,12.03
2022-10-31T14:59:50.863Z,11.63
2022-10-31T15:02:22.823Z,11.94
2022-10-31T15:04:53.581Z,11.64
2022-10-31T15:07:25.508Z,11.63
2022-10-31T15:10:01.584Z,11.75
2022-10-31T15:12:32.753Z,11.27
2022-10-31T15:15:16.221Z,10.97
2022-10-31T15:17:50.170Z,10.84
2022-10-31T15:20:24.318Z,10.81
2022-10-31T15:22:53.019Z,11.34
2022-10-31T15:25:23.632Z,11.09
2022-10-31T15:27:53.814Z,10.66
2022-10-31T15:30:26.339Z,11.53
2022-10-31T15:32:58.815Z,11.21
2022-10-31T15:35:29.428Z,11.56
2022-10-31T15:37:59.616Z,11.50
2022-10-31T15:40:29.553Z,10.80
2022-10-31T15:42:59.712Z,11.48
2022-10-31T15:45:31.609Z,11.10
2022-10-31T15:48:02.951Z,10.31
2022-10-31T15:50:34.891Z,10.43
2022-10-31T15:53:04.458Z,10.70
2022-10-31T15:55:35.548Z,11.06
2022-10-31T15:58:06.470Z,11.44
2022-10-31T16:00:38.572Z,11.91
2022-10-31T16:03:09.096Z,12.48
2022-10-31T16:05:39.803Z,12.70
2022-10-31T16:08:25.012Z,12.72
2022-10-31T16:10:53.751Z,12.13
2022-10-31T16:13:26.948Z,11.89
2022-10-31T16:16:21.646Z,12.43
2022-10-31T16:18:49.320Z,11.74
2022-10-31T16:21:18.182Z,12.17
2022-10-31T16:23:48.084Z,12.32
2022-10-31T16:26:19.759Z,12.46
2022-10-31T16:29:02.640Z,11.56
2022-10-31T16:31:39.174Z,11.87
2022-10-31T16:34:15.574Z,12.16
2022-10-31T16:36:44.491Z,12.39
2022-10-31T16:39:14.645Z,12.35
2022-10-31T16:41:44.584Z,12.22
2022-10-31T16:44:20.258Z,12.49
2022-10-31T16:46:49.938Z,12.95
2022-10-31T16:49:19.783Z,12.73
2022-10-31T16:51:48.467Z,12.94
2022-10-31T16:54:17.189Z,13.21
2022-10-31T16:56:45.843Z,13.59
2022-10-31T16:59:16.502Z,12.88
2022-10-31T17:01:45.555Z,12.83
2022-10-31T17:04:16.636Z,12.35
2022-10-31T17:06:45.463Z,12.28
2022-10-31T17:09:14.087Z,12.59
2022-10-31T17:11:50.047Z,13.25
2022-10-31T17:14:18.972Z,13.43
2022-10-31T17:16:47.301Z,13.22
2022-10-31T17:19:17.479Z,13.20
2022-10-31T17:21:46.068Z,12.60
2022-10-31T17:24:15.877Z,12.91
2022-10-31T17:26:44.523Z,12.61
2022-10-31T17:29:13.197Z,12.36
2022-10-31T17:31:41.412Z,12.75
2022-10-31T17:34:10.899Z,12.76
2022-10-31T17:36:41.100Z,13.14
2022-10-31T17:39:10.903Z,12.49
2022-10-31T17:41:39.558Z,13.33
2022-10-31T17:44:10.500Z,13.44
2022-10-31T17:46:38.894Z,12.63
2022-10-31T17:49:09.190Z,12.89
2022-10-31T17:51:37.718Z,12.90
2022-10-31T17:54:08.971Z,12.37
2022-10-31T17:56:37.670Z,11.95
2022-10-31T18:01:39.867Z,12.68
2022-10-31T18:04:08.535Z,12.33
2022-10-31T18:06:37.260Z,12.30
2022-10-31T18:09:08.151Z,12.18
2022-10-31T18:11:36.770Z,11.40
2022-10-31T18:14:05.452Z,11.56
2022-10-31T18:16:33.922Z,12.14
2022-10-31T18:19:03.020Z,11.91
2022-10-31T18:21:31.913Z,11.34
2022-10-31T18:24:02.998Z,11.82
2022-10-31T18:26:33.244Z,11.73
2022-10-31T18:29:02.187Z,12.08
2022-10-31T18:31:30.494Z,12.47
2022-10-31T18:33:59.493Z,12.79
2022-10-31T18:36:28.209Z,13.27
2022-10-31T18:38:57.029Z,12.32
2022-10-31T18:41:25.842Z,11.86
2022-10-31T18:43:59.905Z,12.62
2022-10-31T18:46:29.388Z,12.72
2022-10-31T18:48:58.292Z,13.09
2022-10-31T18:51:27.013Z,12.97
2022-10-31T18:53:57.222Z,13.35
2022-10-31T18:56:26.553Z,13.04
2022-10-31T18:58:56.233Z,12.85
2022-10-31T19:01:25.006Z,12.94
2022-10-31T19:03:55.768Z,12.80
2022-10-31T19:06:24.494Z,12.93
2022-10-31T19:08:58.530Z,13.17
2022-10-31T19:11:27.398Z,13.09
2022-10-31T19:13:58.577Z,12.79
2022-10-31T19:16:27.483Z,12.22
2022-10-31T19:18:57.557Z,11.95
2022-10-31T19:21:26.220Z,12.03
2022-10-31T19:23:56.531Z,11.70
2022-10-31T19:26:25.231Z,12.34
2022-10-31T19:28:53.949Z,12.72
2022-10-31T19:31:24.051Z,12.43
2022-10-31T19:33:52.817Z,12.67
2022-10-31T19:36:22.032Z,12.39
2022-10-31T19:38:51.848Z,12.13
2022-10-31T19:41:23.391Z,12.35
2022-10-31T19:43:52.027Z,12.67
2022-10-31T19:46:27.991Z,12.51
2022-10-31T19:49:10.928Z,11.91
2022-10-31T19:51:39.717Z,11.26
2022-10-31T19:54:09.263Z,12.01
2022-10-31T19:56:37.959Z,11.28
2022-10-31T19:59:06.610Z,11.31
2022-10-31T20:01:35.146Z,11.32
2022-10-31T20:04:03.889Z,11.33
2022-10-31T20:06:36.779Z,11.12
2022-10-31T20:09:08.090Z,11.64
2022-10-31T20:11:38.111Z,12.34
2022-10-31T20:14:07.248Z,11.59
2022-10-31T20:16:35.744Z,11.22
2022-10-31T20:19:04.416Z,11.92
2022-10-31T20:21:38.008Z,11.30
2022-10-31T20:24:09.216Z,12.07
2022-10-31T20:26:39.743Z,11.94
2022-10-31T20:29:08.861Z,11.35
2022-10-31T20:31:38.225Z,12.03
2022-10-31T20:34:07.110Z,11.92
2022-10-31T20:36:37.794Z,11.55
2022-10-31T20:39:06.657Z,11.48
2022-10-31T20:41:38.655Z,11.24
2022-10-31T20:44:07.497Z,11.61
2022-10-31T20:46:35.755Z,12.14
2022-10-31T20:49:04.380Z,11.50
2022-10-31T20:51:33.029Z,12.32
2022-10-31T20:54:03.170Z,12.09
2022-10-31T20:56:31.821Z,11.80
2022-10-31T20:59:00.463Z,11.12
2022-10-31T21:01:30.815Z,11.37
2022-10-31T21:04:00.034Z,11.95
2022-10-31T21:06:29.796Z,11.31
2022-10-31T21:09:00.279Z,11.64
2022-10-31T21:11:30.494Z,11.44
2022-10-31T21:14:00.525Z,11.40
2022-10-31T21:16:30.174Z,12.04
2022-10-31T21:19:00.548Z,11.55
2022-10-31T21:21:32.787Z,11.64
2022-10-31T21:24:03.080Z,12.12
2022-10-31T21:26:34.973Z,12.56
2022-10-31T21:29:04.672Z,12.49
2022-10-31T21:31:33.665Z,11.47
2022-10-31T21:34:02.422Z,12.15
2022-10-31T21:36:30.999Z,12.07
2022-10-31T21:38:59.750Z,11.23
2022-10-31T21:41:28.909Z,12.11
2022-10-31T21:43:58.835Z,12.20
2022-10-31T21:46:28.955Z,12.06
2022-10-31T21:48:58.140Z,12.60
2022-10-31T21:51:28.515Z,12.21
2022-10-31T21:54:14.278Z,12.25
2022-10-31T21:56:43.078Z,11.48
2022-10-31T21:59:13.331Z,12.55
2022-10-31T22:01:42.553Z,12.85
2022-10-31T22:04:11.396Z,12.24
2022-10-31T22:06:40.088Z,12.04
2022-10-31T22:09:09.911Z,12.79
2022-10-31T22:11:38.545Z,12.82
2022-10-31T22:14:07.398Z,12.37
2022-10-31T22:16:37.992Z,12.92
2022-10-31T22:19:07.759Z,12.64
2022-10-31T22:21:40.991Z,12.80
2022-10-31T22:24:10.349Z,12.87
2022-10-31T22:26:39.738Z,12.83
2022-10-31T22:29:11.085Z,12.69
2022-10-31T22:31:42.503Z,12.82
2022-10-31T22:34:11.629Z,12.94
2022-10-31T22:36:40.442Z,12.11
2022-10-31T22:39:09.367Z,12.73
2022-10-31T22:41:38.623Z,12.81
2022-10-31T22:44:07.695Z,12.83
2022-10-31T22:46:37.809Z,12.98
2022-10-31T22:49:09.021Z,12.87
2022-10-31T22:51:39.111Z,12.64
2022-10-31T22:54:10.803Z,12.48
2022-10-31T22:56:39.392Z,12.85
2022-10-31T22:59:08.061Z,12.74
2022-10-31T23:01:36.482Z,12.80
2022-10-31T23:04:05.510Z,12.96
2022-10-31T23:06:35.602Z,13.05
2022-10-31T23:09:07.311Z,12.64
2022-10-31T23:11:38.413Z,12.26
2022-10-31T23:14:10.837Z,12.79
2022-10-31T23:16:43.449Z,12.77
2022-10-31T23:19:16.981Z,12.98
2022-10-31T23:21:59.989Z,13.11
2022-10-31T23:24:34.403Z,13.05
2022-10-31T23:27:09.854Z,12.83
2022-10-31T23:29:44.572Z,13.09
2022-10-31T23:32:16.576Z,13.02
2022-10-31T23:34:45.475Z,13.10
2022-10-31T23:37:16.626Z,12.86
2022-10-31T23:39:45.751Z,12.64
2022-10-31T23:42:15.638Z,12.61
2022-10-31T23:44:44.357Z,12.71
2022-10-31T23:47:13.327Z,12.68
2022-10-31T23:49:41.689Z,12.52
2022-10-31T23:52:10.852Z,12.10
2022-10-31T23:54:41.072Z,11.34
2022-10-31T23:57:11.235Z,12.04
2022-10-31T23:59:39.911Z,11.14
